• Join FlightAware (Why Join?)
  • Login
  • US Flag 
06:00AM EST


 

Airport Tracker/Info


-or-


 

Live Flight TrackerFlight Track Log ✈ GLA154 ✈ 18-Apr-2013 ✈ KPRC - KIGM

Flight Track Log - Related Links

Times and Time Zones

All times are in EDT time to prevent confusion due to time zone crossing. See the GLA154 flight status page for this flight to view local times or setup timezone preferences in your user account.

Time Position Orientation Groundspeed Altitude Reporting Facility
EDT Latitude Longitude Course Direction KTS MPH feet Rate Location/Type
09:47AM 34.6750 -112.4006 321° Northwest 155 178 6,200  Level Los Angeles Center
09:48AM 34.7006 -112.4439 306° West 181 208 8,400 1,980 Climbing Albuquerque Center
09:49AM 34.7100 -112.5050 281° West 186 214 10,200 1,860 Climbing Albuquerque Center
09:50AM 34.7367 -112.5533 304° West 177 204 12,200 1,920 Climbing Albuquerque Center
09:51AM 34.7481 -112.6119 283° West 177 204 14,200 1,620 Climbing Albuquerque Center
09:52AM 34.7592 -112.6675 284° West 173 199 15,600 780 Climbing Albuquerque Center
09:53AM 34.9384 -112.7217 321° Northwest  Level FlightAware Approximate
09:53AM 34.7875 -112.7381 296° West 190 219 15,900  Level Albuquerque Center
09:55AM 34.8144 -112.8069 295° West 216 249 16,000  Climbing Albuquerque Center
09:56AM 34.8433 -112.8756 297° West 225 259 15,900 -60 Descending Albuquerque Center
09:57AM 34.8717 -112.9444 297° West 226 260 15,900  Level Albuquerque Center
09:58AM 34.8992 -113.0133 296° West 226 260 15,900  Level Albuquerque Center
09:59AM 34.9281 -113.0808 298° West 225 259 15,900  Level Albuquerque Center
10:00AM 34.9569 -113.1500 297° West 227 261 15,900  Level Albuquerque Center
10:01AM 34.9850 -113.2189 296° West 227 261 15,900  Level Albuquerque Center
10:02AM 35.0128 -113.2894 296° West 230 265 15,900  Level Albuquerque Center
10:03AM 35.0406 -113.3619 295° West 234 269 15,900  Level Albuquerque Center
10:04AM 35.0697 -113.4361 296° West 240 276 15,900 -900 Level Albuquerque Center
10:05AM 35.1036 -113.5192 297° West 232 267 14,100 -1,680 Descending Albuquerque Center
10:06AM 35.1292 -113.5872 295° West 224 258 12,600 -1,500 Descending Albuquerque Center
10:07AM 35.1539 -113.6567 294° West 223 257 11,100 -1,440 Descending Albuquerque Center
10:08AM 35.1806 -113.7275 295° West 227 261 9,700 -1,380 Descending Albuquerque Center